SRCO2: Rock Creek nr Sulphur 2SW

Data processed at Tue May 21 2019 21:30


All information presented herein is the property of the government of the United States of America and may be revised or deleted at any time without prior notice.
Dissemination of this information without the expressed written consent of the Public Affairs Office, Tulsa District U.S. Army Corps of Engineers is strictly prohibited.
These data are gathered electronically and, as presented, have not undergone any form of quality control. These data are not guaranteed to be valid or correct.
Go to home page.
Go to station list.
Go to home page.

Downstream station:


Previous Day
Next Day
Current Day
    
SHEF ID:       SRCO2     Rock Creek at Sulphur, OK
STATION TYPE:  

                STAGE  RIV-FLOW  BAT-LOAD
                   ft       cfs      volt
              Ccp-Rev   Ccp-Rev   Ccp-Rev
(US/Central)
05/21 00:00      6.20        52     12.57
05/21 01:00      6.20        52     12.57
05/21 02:00      6.20        52     12.57
05/21 03:00      6.20        52     12.57
05/21 04:00      6.20        52     12.57
05/21 05:00      6.18        51     12.57
05/21 06:00      6.76       115     12.49
05/21 07:00      7.19       186     12.49
05/21 08:00      7.59       273     12.49
05/21 09:00      8.50       557     12.49
05/21 10:00      9.06       790     12.57
05/21 11:00      8.93       735     12.97
05/21 12:00      8.71       642     13.13
05/21 13:00      8.44       534     13.44
05/21 14:00      8.20       449     13.53
05/21 15:00      7.95       370     13.60
05/21 16:00      7.81       330     13.60
05/21 17:00      7.66       291     13.60
05/21 18:00      7.55       264     13.68
05/21 19:00      7.42       234     13.60
05/21 20:00      7.33       214     13.05
05/21 21:00      ----      ----      ----
05/21 22:00      ----      ----      ----
05/21 23:00      ----      ----      ----